Avondale, Kentucky
Current Conditions -  °F | °C
As of 6:07 PM on Monday 22 Dec 2014 (Local Time) from KPAH Reporting Station
Light Rain Light Rain  
Wind Chill: 11°   Ceiling: 1400
Heat Index: 11°   Visibility: 5mi
Dew Point: 10°   Wind: 10mph
Humidity: 93%   Direction: 150°SSE
Pressure: 29.61"   Gusts: NA
Location:  37.0331°N, 88.716°W
Report Text: KPAH 230007Z AUTO 15009KT 5SM -RA BR BKN014 BKN022 OVC036 11/10 A2961 RMK AO2 RAB00 P0001 T01110100
Loading
Personal Weather Stations






























Interactive Weather Map New forecast layout! Learn more

10-Day Weather Forecast

Advertisements
Track Severe Weather on mobile